createdAt,value
2018-03-28T00:00:57.163Z,15.10
2018-03-28T00:03:24.617Z,15.50
2018-03-28T00:05:52.189Z,15.38
2018-03-28T00:08:20.451Z,14.60
2018-03-28T00:10:47.918Z,13.70
2018-03-28T00:13:15.384Z,13.10
2018-03-28T00:15:42.829Z,13.97
2018-03-28T00:18:10.310Z,13.48
2018-03-28T00:20:38.534Z,14.10
2018-03-28T00:23:06.001Z,14.63
2018-03-28T00:25:33.462Z,15.07
2018-03-28T00:28:00.946Z,14.57
2018-03-28T00:30:28.405Z,14.20
2018-03-28T00:32:55.863Z,14.27
2018-03-28T00:35:23.338Z,14.60
2018-03-28T00:37:51.566Z,14.57
2018-03-28T00:40:19.025Z,14.48
2018-03-28T00:42:46.484Z,14.18
2018-03-28T00:45:13.957Z,13.07
2018-03-28T00:47:41.418Z,13.65
2018-03-28T00:50:08.878Z,13.35
2018-03-28T00:52:36.348Z,14.80
2018-03-28T00:55:03.810Z,13.77
2018-03-28T00:57:31.265Z,13.20
2018-03-28T00:59:58.717Z,13.90
2018-03-28T01:02:26.173Z,13.68
2018-03-28T01:04:53.639Z,13.98
2018-03-28T01:07:21.096Z,12.40
2018-03-28T01:09:48.563Z,13.23
2018-03-28T01:12:16.793Z,14.07
2018-03-28T01:14:44.257Z,12.88
2018-03-28T01:17:11.715Z,13.20
2018-03-28T01:19:39.186Z,13.13
2018-03-28T01:22:06.644Z,13.57
2018-03-28T01:24:34.110Z,13.15
2018-03-28T01:27:01.553Z,12.40
2018-03-28T01:29:29.029Z,12.88
2018-03-28T01:31:56.473Z,13.52
2018-03-28T01:34:23.933Z,13.70
2018-03-28T01:36:51.402Z,13.70
2018-03-28T01:39:18.874Z,13.70
2018-03-28T01:41:46.325Z,13.55
2018-03-28T01:44:13.790Z,12.70
2018-03-28T01:46:42.026Z,13.98
2018-03-28T01:49:09.498Z,13.90
2018-03-28T01:51:36.963Z,14.18
2018-03-28T01:54:04.417Z,14.37
2018-03-28T01:56:31.878Z,14.87
2018-03-28T01:58:59.339Z,14.38
2018-03-28T02:01:26.805Z,13.82
2018-03-28T02:03:54.281Z,14.60
2018-03-28T02:06:22.511Z,14.38
2018-03-28T02:08:49.985Z,15.65
2018-03-28T02:11:17.443Z,15.18
2018-03-28T02:13:44.901Z,16.03
2018-03-28T02:16:12.358Z,15.75
2018-03-28T02:18:39.827Z,15.75
2018-03-28T02:21:07.295Z,17.15
2018-03-28T02:23:34.764Z,15.90
2018-03-28T02:26:02.981Z,16.37
2018-03-28T02:28:30.437Z,16.85
2018-03-28T02:30:57.897Z,16.05
2018-03-28T02:33:25.358Z,16.90
2018-03-28T02:35:52.832Z,17.30
2018-03-28T02:38:20.302Z,16.35
2018-03-28T02:40:47.749Z,16.12
2018-03-28T02:43:15.208Z,16.80
2018-03-28T02:45:42.679Z,17.25
2018-03-28T02:48:10.118Z,16.30
2018-03-28T02:50:37.587Z,15.82
2018-03-28T02:53:05.051Z,16.73
2018-03-28T02:55:32.524Z,15.85
2018-03-28T02:57:59.973Z,15.60
2018-03-28T03:00:27.439Z,15.30
2018-03-28T03:02:54.893Z,13.90
2018-03-28T03:05:22.349Z,14.95
2018-03-28T03:07:49.806Z,14.00
2018-03-28T03:10:17.267Z,13.67
2018-03-28T03:12:44.731Z,13.30
2018-03-28T03:15:12.199Z,13.23
2018-03-28T03:17:40.422Z,12.88
2018-03-28T03:20:07.894Z,11.77
2018-03-28T03:22:35.353Z,11.17
2018-03-28T03:25:02.833Z,11.70
2018-03-28T03:27:30.286Z,10.00
2018-03-28T03:29:57.759Z,11.05
2018-03-28T03:32:25.995Z,10.45
2018-03-28T03:34:53.481Z,11.20
2018-03-28T03:37:20.940Z,9.57
2018-03-28T03:39:48.399Z,9.90
2018-03-28T03:42:15.861Z,9.63
2018-03-28T03:44:43.327Z,9.50
2018-03-28T03:47:11.576Z,8.43
2018-03-28T03:49:39.815Z,8.73
2018-03-28T03:52:07.290Z,8.20
2018-03-28T03:54:34.747Z,8.10
2018-03-28T03:57:02.230Z,8.18
2018-03-28T03:59:29.682Z,8.30
2018-03-28T04:01:57.145Z,8.15
2018-03-28T04:04:24.589Z,8.63
2018-03-28T04:06:52.066Z,8.27
2018-03-28T04:09:19.517Z,8.55
2018-03-28T04:11:46.970Z,7.80
2018-03-28T04:14:14.425Z,7.72
2018-03-28T04:16:41.903Z,7.72
2018-03-28T04:19:09.366Z,7.70
2018-03-28T04:21:36.807Z,7.73
2018-03-28T04:24:04.278Z,8.13
2018-03-28T04:26:31.763Z,7.70
2018-03-28T04:28:59.195Z,8.38
2018-03-28T04:31:26.648Z,7.63
2018-03-28T04:33:54.123Z,7.60
2018-03-28T04:36:22.353Z,7.50
2018-03-28T04:38:49.819Z,7.32
2018-03-28T04:41:17.282Z,8.10
2018-03-28T04:43:44.750Z,6.50
2018-03-28T04:46:12.206Z,7.10
2018-03-28T04:48:39.667Z,6.55
2018-03-28T04:51:07.110Z,6.97
2018-03-28T04:53:34.578Z,7.05
2018-03-28T04:56:02.036Z,7.15
2018-03-28T04:58:29.493Z,6.72
2018-03-28T05:00:56.951Z,7.10
2018-03-28T05:03:24.433Z,6.10
2018-03-28T05:05:51.895Z,5.97
2018-03-28T05:08:19.346Z,5.50
2018-03-28T05:10:46.801Z,5.20
2018-03-28T05:13:14.267Z,5.50
2018-03-28T05:15:41.785Z,5.40
2018-03-28T05:18:09.950Z,5.95
2018-03-28T05:20:37.410Z,4.80
2018-03-28T05:23:04.878Z,5.15
2018-03-28T05:25:32.338Z,5.55
2018-03-28T05:27:59.794Z,4.70
2018-03-28T05:30:27.253Z,4.75
2018-03-28T05:32:54.719Z,4.30
2018-03-28T05:35:22.165Z,4.50
2018-03-28T05:37:49.625Z,4.40
2018-03-28T05:40:17.082Z,4.60
2018-03-28T05:42:44.529Z,4.05
2018-03-28T05:45:11.993Z,3.90
2018-03-28T05:47:39.450Z,4.00
2018-03-28T05:50:06.930Z,3.92
2018-03-28T05:52:34.391Z,3.80
2018-03-28T05:55:01.850Z,4.00
2018-03-28T05:57:29.299Z,4.13
2018-03-28T05:59:56.780Z,3.42
2018-03-28T06:02:24.231Z,3.42
2018-03-28T06:04:51.683Z,4.10
2018-03-28T06:07:19.150Z,3.60
2018-03-28T06:09:46.606Z,3.53
2018-03-28T06:12:14.061Z,3.50
2018-03-28T06:14:41.521Z,3.30
2018-03-28T06:17:09.009Z,3.22
2018-03-28T06:19:37.247Z,3.10
2018-03-28T06:22:05.493Z,3.55
2018-03-28T06:24:32.946Z,3.42
2018-03-28T06:27:00.411Z,4.00
2018-03-28T06:29:27.878Z,3.80
2018-03-28T06:31:55.334Z,3.67
2018-03-28T06:34:22.787Z,3.90
2018-03-28T06:36:50.246Z,3.70
2018-03-28T06:39:17.711Z,3.90
2018-03-28T06:41:45.176Z,3.80
2018-03-28T06:44:12.623Z,3.70
2018-03-28T06:46:40.079Z,4.40
2018-03-28T06:49:07.534Z,4.35
2018-03-28T06:51:34.982Z,3.77
2018-03-28T06:54:02.445Z,4.20
2018-03-28T06:56:29.902Z,3.50
2018-03-28T06:58:57.367Z,4.13
2018-03-28T07:01:24.834Z,4.40
2018-03-28T07:03:52.282Z,4.60
2018-03-28T07:06:19.731Z,4.27
2018-03-28T07:08:47.192Z,4.63
2018-03-28T07:11:14.641Z,4.20
2018-03-28T07:13:42.085Z,4.00
2018-03-28T07:16:10.322Z,4.83
2018-03-28T07:18:37.766Z,4.40
2018-03-28T07:21:05.213Z,4.80
2018-03-28T07:23:32.670Z,5.12
2018-03-28T07:26:00.898Z,5.47
2018-03-28T07:28:29.117Z,5.55
2018-03-28T07:30:56.569Z,5.78
2018-03-28T07:33:24.025Z,5.23
2018-03-28T07:35:51.489Z,5.90
2018-03-28T07:38:18.946Z,5.20
2018-03-28T07:40:46.396Z,5.30
2018-03-28T07:43:13.847Z,5.70
2018-03-28T07:45:41.301Z,5.90
2018-03-28T07:48:08.761Z,8.40
2018-03-28T07:50:36.219Z,7.63
2018-03-28T07:53:03.661Z,6.20
2018-03-28T07:55:31.882Z,4.17
2018-03-28T07:57:59.326Z,5.67
2018-03-28T08:00:26.794Z,4.80
2018-03-28T08:02:54.247Z,4.20
2018-03-28T08:05:21.693Z,5.73
2018-03-28T08:07:49.162Z,4.43
2018-03-28T08:10:16.611Z,4.23
2018-03-28T08:12:44.070Z,3.87
2018-03-28T08:15:11.526Z,3.60
2018-03-28T08:17:38.983Z,3.97
2018-03-28T08:20:06.431Z,4.40
2018-03-28T08:22:33.886Z,3.63
2018-03-28T08:25:01.349Z,3.50
2018-03-28T08:27:28.813Z,3.60
2018-03-28T08:29:56.274Z,3.95
2018-03-28T08:32:23.722Z,3.43
2018-03-28T08:34:51.173Z,3.23
2018-03-28T08:37:18.633Z,3.40
2018-03-28T08:39:46.090Z,3.43
2018-03-28T08:42:13.551Z,3.50
2018-03-28T08:44:41.002Z,3.10
2018-03-28T08:52:02.505Z,2.80
2018-03-28T08:54:29.955Z,2.90
2018-03-28T08:56:57.416Z,2.50
2018-03-28T08:59:24.866Z,2.30
2018-03-28T09:01:52.370Z,2.40
2018-03-28T09:04:19.770Z,2.90
2018-03-28T09:06:47.225Z,2.50
2018-03-28T09:09:14.685Z,2.50
2018-03-28T09:11:42.138Z,2.60
2018-03-28T09:14:09.594Z,2.43
2018-03-28T09:16:37.050Z,2.30
2018-03-28T09:19:04.497Z,2.53
2018-03-28T09:21:31.959Z,2.13
2018-03-28T09:23:59.406Z,2.07
2018-03-28T09:26:26.870Z,2.45
2018-03-28T09:28:54.357Z,1.77
2018-03-28T09:31:21.815Z,2.30
2018-03-28T09:33:49.266Z,2.40
2018-03-28T09:36:16.719Z,2.10
2018-03-28T09:38:44.170Z,2.13
2018-03-28T09:41:11.622Z,2.00
2018-03-28T09:43:39.066Z,2.03
2018-03-28T09:46:06.534Z,2.37
2018-03-28T09:48:33.991Z,2.30
2018-03-28T09:51:01.445Z,2.50
2018-03-28T09:53:28.910Z,2.00
2018-03-28T09:55:56.359Z,2.30
2018-03-28T09:58:23.826Z,2.10
2018-03-28T10:01:10.124Z,1.90
2018-03-28T10:03:43.216Z,2.45
2018-03-28T10:06:10.669Z,1.67
2018-03-28T10:08:38.135Z,1.90
2018-03-28T10:11:05.591Z,2.00
2018-03-28T10:13:33.047Z,1.80
2018-03-28T10:16:00.497Z,2.23
2018-03-28T10:18:27.958Z,2.55
2018-03-28T10:20:55.409Z,2.07
2018-03-28T10:23:23.630Z,2.10
2018-03-28T10:25:51.102Z,1.90
2018-03-28T10:28:18.572Z,2.00
2018-03-28T10:30:46.022Z,2.30
2018-03-28T10:33:13.479Z,2.00
2018-03-28T10:35:40.938Z,1.90
2018-03-28T10:38:08.401Z,1.50
2018-03-28T10:40:35.850Z,1.90
2018-03-28T10:43:03.305Z,1.60
2018-03-28T10:45:30.767Z,1.67
2018-03-28T10:47:58.222Z,1.90
2018-03-28T10:50:25.679Z,1.90
2018-03-28T10:52:53.148Z,1.70
2018-03-28T10:55:20.599Z,1.70
2018-03-28T10:57:48.058Z,1.93
2018-03-28T11:00:15.515Z,1.80
2018-03-28T11:02:42.974Z,1.57
2018-03-28T11:05:10.440Z,2.30
2018-03-28T11:07:37.910Z,1.90
2018-03-28T11:10:05.366Z,1.85
2018-03-28T11:12:32.822Z,2.20
2018-03-28T11:15:00.283Z,1.50
2018-03-28T11:17:27.767Z,2.10
2018-03-28T11:19:55.229Z,2.20
2018-03-28T11:22:22.694Z,2.08
2018-03-28T11:24:50.143Z,2.50
2018-03-28T11:27:17.601Z,2.55
2018-03-28T11:29:45.062Z,2.10
2018-03-28T11:32:12.514Z,2.15
2018-03-28T11:34:39.957Z,2.60
2018-03-28T11:37:08.195Z,3.10
2018-03-28T11:39:35.651Z,2.80
2018-03-28T11:42:03.111Z,3.10
2018-03-28T11:44:30.567Z,2.43
2018-03-28T11:46:58.039Z,3.50
2018-03-28T11:49:25.505Z,2.80
2018-03-28T11:51:52.956Z,3.40
2018-03-28T11:54:20.421Z,3.90
2018-03-28T11:56:47.874Z,2.90
2018-03-28T11:59:15.358Z,2.75
2018-03-28T12:01:43.573Z,3.30
2018-03-28T12:04:11.039Z,2.73
2018-03-28T12:11:33.281Z,2.43
2018-03-28T12:14:00.750Z,2.83
2018-03-28T12:16:28.202Z,2.50
2018-03-28T12:18:55.654Z,3.20
2018-03-28T12:21:23.106Z,3.00
2018-03-28T12:23:50.558Z,2.70
2018-03-28T12:26:18.017Z,2.70
2018-03-28T12:28:45.479Z,2.80
2018-03-28T12:31:13.699Z,2.60
2018-03-28T12:33:41.156Z,2.90
2018-03-28T12:36:09.382Z,2.92
2018-03-28T12:38:37.610Z,2.60
2018-03-28T12:41:05.895Z,2.40
2018-03-28T12:43:33.350Z,2.40
2018-03-28T12:46:00.806Z,2.58
2018-03-28T12:48:28.298Z,2.70
2018-03-28T12:50:55.718Z,2.67
2018-03-28T12:53:23.937Z,2.10
2018-03-28T12:55:52.151Z,2.37
2018-03-28T12:58:19.613Z,2.70
2018-03-28T13:00:47.059Z,3.20
2018-03-28T13:03:14.525Z,2.75
2018-03-28T13:05:41.982Z,4.22
2018-03-28T13:08:09.496Z,2.60
2018-03-28T13:10:36.895Z,2.70
2018-03-28T13:13:04.353Z,3.47
2018-03-28T13:15:31.829Z,3.42
2018-03-28T13:17:59.293Z,4.80
2018-03-28T13:20:26.743Z,2.90
2018-03-28T13:22:54.207Z,3.03
2018-03-28T13:25:21.673Z,2.90
2018-03-28T13:27:49.125Z,2.80
2018-03-28T13:30:16.574Z,2.53
2018-03-28T13:32:44.031Z,3.20
2018-03-28T13:35:11.490Z,2.90
2018-03-28T13:37:38.962Z,3.00
2018-03-28T13:40:06.433Z,2.70
2018-03-28T13:47:28.673Z,2.50
2018-03-28T13:49:56.131Z,3.40
2018-03-28T13:52:23.579Z,2.85
2018-03-28T13:54:51.050Z,2.87
2018-03-28T13:57:18.506Z,2.80
2018-03-28T13:59:45.966Z,3.08
2018-03-28T14:02:13.442Z,3.50
2018-03-28T14:04:40.901Z,2.90
2018-03-28T14:07:08.362Z,3.40
2018-03-28T14:09:35.821Z,3.55
2018-03-28T14:12:03.277Z,4.50
2018-03-28T14:14:30.723Z,2.93
2018-03-28T14:16:58.170Z,3.55
2018-03-28T14:19:25.646Z,3.37
2018-03-28T14:21:53.133Z,4.03
2018-03-28T14:24:20.558Z,3.37
2018-03-28T14:26:48.779Z,2.90
2018-03-28T14:29:16.992Z,3.20
2018-03-28T14:31:44.463Z,2.70
2018-03-28T14:34:12.702Z,3.40
2018-03-28T14:36:40.145Z,2.60
2018-03-28T14:39:08.388Z,3.25
2018-03-28T14:41:35.842Z,3.35
2018-03-28T14:44:03.301Z,2.80
2018-03-28T14:46:30.753Z,2.80
2018-03-28T14:48:58.214Z,2.70
2018-03-28T14:51:25.669Z,2.50
2018-03-28T14:53:53.124Z,3.33
2018-03-28T14:56:20.573Z,3.93
2018-03-28T14:58:48.041Z,3.00
2018-03-28T15:01:15.514Z,3.80
2018-03-28T15:03:42.960Z,3.70
2018-03-28T15:06:10.419Z,3.40
2018-03-28T15:08:37.876Z,3.70
2018-03-28T15:11:05.383Z,3.62
2018-03-28T15:13:32.784Z,4.28
2018-03-28T15:16:00.245Z,4.10
2018-03-28T15:18:27.704Z,4.00
2018-03-28T15:20:55.162Z,4.10
2018-03-28T15:23:22.620Z,4.80
2018-03-28T15:25:50.077Z,5.50
2018-03-28T15:28:17.533Z,5.40
2018-03-28T15:30:45.755Z,4.47
2018-03-28T15:33:13.979Z,4.23
2018-03-28T15:35:41.445Z,4.50
2018-03-28T15:38:08.903Z,4.65
2018-03-28T15:40:36.358Z,6.18
2018-03-28T15:43:03.817Z,8.00
2018-03-28T15:45:31.277Z,5.60
2018-03-28T15:47:58.744Z,5.40
2018-03-28T15:50:26.206Z,5.00
2018-03-28T15:52:53.669Z,4.95
2018-03-28T15:55:21.122Z,5.20
2018-03-28T15:57:48.580Z,5.50
2018-03-28T16:00:16.037Z,5.65
2018-03-28T16:02:43.503Z,4.93
2018-03-28T16:07:37.999Z,5.30
2018-03-28T16:10:05.440Z,5.50
2018-03-28T16:12:32.908Z,3.97
2018-03-28T16:15:00.361Z,4.90
2018-03-28T17:40:55.403Z,4.37
2018-03-28T17:43:22.862Z,5.65
2018-03-28T17:45:50.301Z,7.10
2018-03-28T17:48:18.528Z,6.78
2018-03-28T17:50:45.973Z,7.85
2018-03-28T17:53:13.456Z,7.10
2018-03-28T17:55:40.911Z,7.37
2018-03-28T17:58:08.357Z,6.40
2018-03-28T18:00:35.816Z,6.50
2018-03-28T18:03:03.282Z,6.20
2018-03-28T18:05:30.747Z,6.05
2018-03-28T18:07:58.197Z,6.40
2018-03-28T18:10:25.645Z,6.90
2018-03-28T18:12:53.102Z,6.95
2018-03-28T18:15:20.558Z,6.32
2018-03-28T18:17:48.013Z,6.20
2018-03-28T18:20:15.469Z,5.80
2018-03-28T18:22:42.937Z,5.93
2018-03-28T18:25:10.394Z,5.12
2018-03-28T18:27:37.856Z,5.62
2018-03-28T18:30:05.304Z,5.80
2018-03-28T18:32:32.792Z,5.05
2018-03-28T18:35:00.243Z,6.55
2018-03-28T18:37:27.710Z,6.40
2018-03-28T18:39:55.166Z,6.70
2018-03-28T18:42:22.635Z,7.07
2018-03-28T18:44:50.097Z,6.85
2018-03-28T18:47:17.547Z,5.60
2018-03-28T18:49:44.992Z,5.40
2018-03-28T18:52:12.459Z,5.50
2018-03-28T18:54:39.912Z,5.10
2018-03-28T18:57:07.371Z,5.28
2018-03-28T18:59:34.825Z,6.33
2018-03-28T19:02:02.277Z,5.35
2018-03-28T19:04:29.734Z,5.93
2018-03-28T19:06:57.184Z,5.85
2018-03-28T19:09:24.671Z,5.87
2018-03-28T19:11:52.134Z,5.50
2018-03-28T19:14:19.599Z,5.80
2018-03-28T19:16:47.824Z,5.33
2018-03-28T19:19:15.285Z,5.30
2018-03-28T19:21:42.749Z,5.40
2018-03-28T19:24:10.207Z,5.82
2018-03-28T19:26:37.650Z,5.60
2018-03-28T19:29:05.115Z,6.20
2018-03-28T19:31:32.572Z,6.00
2018-03-28T19:34:00.797Z,6.28
2018-03-28T19:36:29.428Z,7.57
2018-03-28T19:38:56.895Z,9.80
2018-03-28T19:41:24.363Z,13.88
2018-03-28T19:43:51.835Z,11.45
2018-03-28T19:46:19.294Z,14.68
2018-03-28T19:48:46.750Z,11.53
2018-03-28T19:51:14.212Z,17.05
2018-03-28T19:53:41.670Z,11.75
2018-03-28T19:56:09.135Z,11.77
2018-03-28T19:58:36.594Z,11.10
2018-03-28T20:01:04.055Z,10.25
2018-03-28T20:03:31.515Z,6.70
2018-03-28T20:05:58.969Z,6.80
2018-03-28T20:08:26.426Z,6.90
2018-03-28T20:10:53.899Z,6.53
2018-03-28T20:13:21.354Z,7.50
2018-03-28T20:15:49.593Z,6.00
2018-03-28T20:18:17.049Z,8.10
2018-03-28T20:20:44.501Z,7.57
2018-03-28T20:23:11.969Z,7.70
2018-03-28T20:25:39.441Z,10.65
2018-03-28T20:28:06.896Z,8.52
2018-03-28T20:30:34.345Z,9.80
2018-03-28T20:33:01.802Z,9.95
2018-03-28T20:35:29.258Z,6.28
2018-03-28T20:37:56.708Z,6.25
2018-03-28T20:40:24.176Z,7.10
2018-03-28T20:42:51.625Z,6.10
2018-03-28T20:45:19.129Z,6.43
2018-03-28T20:47:47.362Z,6.00
2018-03-28T20:50:14.813Z,6.10
2018-03-28T20:52:42.273Z,4.77
2018-03-28T20:55:09.730Z,5.10
2018-03-28T20:57:37.193Z,4.47
2018-03-28T21:00:04.671Z,4.68
2018-03-28T21:02:32.117Z,4.00
2018-03-28T21:05:00.325Z,4.35
2018-03-28T21:07:27.783Z,3.50
2018-03-28T21:09:56.001Z,3.50
2018-03-28T21:12:23.471Z,3.72
2018-03-28T21:14:50.929Z,3.30
2018-03-28T21:17:18.398Z,4.63
2018-03-28T21:19:45.855Z,4.47
2018-03-28T21:22:13.316Z,6.05
2018-03-28T21:24:40.756Z,5.45
2018-03-28T21:27:08.213Z,3.70
2018-03-28T21:29:35.681Z,2.50
2018-03-28T21:32:03.137Z,2.70
2018-03-28T21:34:30.584Z,2.55
2018-03-28T21:36:58.049Z,2.80
2018-03-28T21:39:25.519Z,1.90
2018-03-28T21:41:52.966Z,1.60
2018-03-28T21:44:20.413Z,1.80
2018-03-28T21:46:47.889Z,1.80
2018-03-28T21:49:15.334Z,1.90
2018-03-28T21:51:42.797Z,1.70
2018-03-28T21:54:10.253Z,2.20
2018-03-28T21:56:37.711Z,5.30
2018-03-28T21:59:05.167Z,3.10
2018-03-28T22:01:32.641Z,2.40
2018-03-28T22:04:00.093Z,2.80
2018-03-28T22:06:27.551Z,2.20
2018-03-28T22:08:55.005Z,2.65
2018-03-28T22:11:22.459Z,2.20
2018-03-28T22:13:49.927Z,2.55
2018-03-28T22:16:17.382Z,2.50
2018-03-28T22:18:44.838Z,2.20
2018-03-28T22:21:12.298Z,2.25
2018-03-28T22:23:39.749Z,3.12
2018-03-28T22:26:07.193Z,3.47
2018-03-28T22:28:34.665Z,3.62
2018-03-28T22:31:02.117Z,3.60
2018-03-28T22:33:29.581Z,3.20
2018-03-28T22:35:57.037Z,2.70
2018-03-28T22:38:24.488Z,2.30
2018-03-28T22:40:51.945Z,2.55
2018-03-28T22:43:19.416Z,2.20
2018-03-28T22:45:46.849Z,2.10
2018-03-28T22:48:14.310Z,1.90
2018-03-28T22:50:41.760Z,1.70
2018-03-28T22:53:09.219Z,1.90
2018-03-28T22:59:07.832Z,1.60
2018-03-28T23:01:35.304Z,1.58
2018-03-28T23:04:02.758Z,1.50
2018-03-28T23:06:30.221Z,1.40
2018-03-28T23:08:57.669Z,1.30
2018-03-28T23:11:25.103Z,1.33
2018-03-28T23:13:53.321Z,1.30
2018-03-28T23:16:20.773Z,1.20
2018-03-28T23:18:48.226Z,1.12
2018-03-28T23:21:15.677Z,1.10
2018-03-28T23:23:43.140Z,1.30
2018-03-28T23:26:10.594Z,1.30
2018-03-28T23:28:38.045Z,1.20
2018-03-28T23:31:05.486Z,1.10
2018-03-28T23:33:32.954Z,1.10
2018-03-28T23:36:00.409Z,1.12
2018-03-28T23:38:27.869Z,1.20
2018-03-28T23:40:55.327Z,1.20
2018-03-28T23:43:22.782Z,1.00
2018-03-28T23:45:50.228Z,1.00
2018-03-28T23:48:18.455Z,0.93
2018-03-28T23:50:45.894Z,1.00
2018-03-28T23:53:13.353Z,1.20
2018-03-28T23:55:40.809Z,1.10
2018-03-28T23:58:08.266Z,1.10
